^^
Meteo Knjazevac Station Historical Data
Daily Summary for April 14, 2021 Units:  Both    English   Metric
Daily Weekly Monthly Yearly Custom
  High: Low: Average:
Temperature: 72.3 °F /  22.4 °C 62.6 °F /  17 °C 66.3 °F /  19.1 °C
Dew Point: 65.4 °F /  18.6 °C 58 °F /  14.4 °C 60 °F /  15.6 °C
Humidity: 88% 69% 80%
Wind Speed: 3mph /  4.8km/h - 0.8mph /  1.3km/h
Wind Gust: 9mph /  14.5km/h - -
Wind- - SSW
Pressure: 30.05 in /  1017.5 hPa 29.99 in /  1015.5 hPa -
Precipitation: 0.00 in /  0 mm    
Historical Graphs
 
 
Tabular Data for April 14, 2021
Time Temperature Dew Point Pressure Wind Wind Speed Wind Gust Humidity Rainfall Rate (Hourly) solar Conditions
00:00 72.1 °F /  22.3 °C 61.4 °F /  16.3 °C 29.99in /  1015.5hPa Calm   2mph /  3.2km/h 69% 0.00in /  0mm 0 W/m2
00:10 71.8 °F /  22.1 °C 61.5 °F /  16.4 °C 29.99in /  1015.5hPa SE 1mph /  1.6km/h 2mph /  3.2km/h 70% 0.00in /  0mm 0 W/m2
00:20 71.2 °F /  21.8 °C 61 °F /  16.1 °C 29.99in /  1015.5hPa Calm   3mph /  4.8km/h 70% 0.00in /  0mm 0 W/m2
00:30 70.7 °F /  21.5 °C 61.6 °F /  16.4 °C 29.99in /  1015.5hPa WNW 2mph /  3.2km/h 3mph /  4.8km/h 73% 0.00in /  0mm 0 W/m2
00:40 70.2 °F /  21.2 °C 61.1 °F /  16.2 °C 29.99in /  1015.5hPa West 2mph /  3.2km/h 3mph /  4.8km/h 73% 0.00in /  0mm 0 W/m2
00:50 69.4 °F /  20.8 °C 60.4 °F /  15.8 °C 29.99in /  1015.5hPa WSW 1mph /  1.6km/h 3mph /  4.8km/h 73% 0.00in /  0mm 0 W/m2
01:00 68.7 °F /  20.4 °C 60.1 °F /  15.6 °C 29.99in /  1015.5hPa WSW 1mph /  1.6km/h 2mph /  3.2km/h 74% 0.00in /  0mm 0 W/m2
01:10 68.2 °F /  20.1 °C 60 °F /  15.6 °C 29.99in /  1015.5hPa West 2mph /  3.2km/h 4mph /  6.4km/h 75% 0.00in /  0mm 0 W/m2
01:20 68 °F /  20 °C 59.8 °F /  15.4 °C 29.99in /  1015.5hPa West 2mph /  3.2km/h 4mph /  6.4km/h 75% 0.00in /  0mm 0 W/m2
01:30 67.8 °F /  19.9 °C 59.6 °F /  15.3 °C 29.99in /  1015.5hPa WSW 2mph /  3.2km/h 5mph /  8km/h 75% 0.00in /  0mm 0 W/m2
01:40 67.5 °F /  19.7 °C 59.3 °F /  15.2 °C 30.00in /  1015.8hPa West 2mph /  3.2km/h 5mph /  8km/h 75% 0.00in /  0mm 0 W/m2
01:50 67.3 °F /  19.6 °C 59.1 °F /  15.1 °C 30.00in /  1015.8hPa WNW 2mph /  3.2km/h 4mph /  6.4km/h 75% 0.00in /  0mm 0 W/m2
02:00 67.3 °F /  19.6 °C 59.1 °F /  15.1 °C 30.00in /  1015.8hPa Calm   4mph /  6.4km/h 75% 0.00in /  0mm 0 W/m2
02:10 67.3 °F /  19.6 °C 59.8 °F /  15.4 °C 30.00in /  1015.8hPa Calm   2mph /  3.2km/h 77% 0.00in /  0mm 0 W/m2
02:20 66.9 °F /  19.4 °C 59.8 °F /  15.4 °C 30.00in /  1015.8hPa Calm   1mph /  1.6km/h 78% 0.00in /  0mm 0 W/m2
02:30 66.7 °F /  19.3 °C 59.7 °F /  15.4 °C 30.00in /  1015.8hPa Calm   2mph /  3.2km/h 78% 0.00in /  0mm 0 W/m2
02:40 66.4 °F /  19.1 °C 59.3 °F /  15.2 °C 30.00in /  1015.8hPa Calm   1mph /  1.6km/h 78% 0.00in /  0mm 0 W/m2
02:50 65.8 °F /  18.8 °C 59.1 °F /  15.1 °C 30.00in /  1015.8hPa Calm   2mph /  3.2km/h 79% 0.00in /  0mm 0 W/m2
03:00 65.5 °F /  18.6 °C 59.1 °F /  15.1 °C 30.00in /  1015.8hPa Calm   2mph /  3.2km/h 80% 0.00in /  0mm 0 W/m2
03:10 65.1 °F /  18.4 °C 58.8 °F /  14.9 °C 30.00in /  1015.8hPa Calm   2mph /  3.2km/h 80% 0.00in /  0mm 0 W/m2
03:20 64.9 °F /  18.3 °C 58.6 °F /  14.8 °C 30.01in /  1016.1hPa Calm   1mph /  1.6km/h 80% 0.00in /  0mm 0 W/m2
03:30 64.9 °F /  18.3 °C 58.6 °F /  14.8 °C 30.01in /  1016.1hPa North 1mph /  1.6km/h 2mph /  3.2km/h 80% 0.00in /  0mm 0 W/m2
03:40 64.9 °F /  18.3 °C 59 °F /  15 °C 30.01in /  1016.1hPa North 1mph /  1.6km/h 2mph /  3.2km/h 81% 0.00in /  0mm 0 W/m2
03:50 64.9 °F /  18.3 °C 59 °F /  15 °C 30.01in /  1016.1hPa Calm   4mph /  6.4km/h 81% 0.00in /  0mm 0 W/m2
04:00 64.6 °F /  18.1 °C 58.6 °F /  14.8 °C 30.01in /  1016.1hPa WNW 1mph /  1.6km/h 5mph /  8km/h 81% 0.00in /  0mm 0 W/m2
04:10 64.8 °F /  18.2 °C 59.5 °F /  15.3 °C 30.01in /  1016.1hPa Calm   6mph /  9.7km/h 83% 0.00in /  0mm 0 W/m2
04:20 64.4 °F /  18 °C 58.5 °F /  14.7 °C 30.01in /  1016.1hPa NE 1mph /  1.6km/h 5mph /  8km/h 81% 0.00in /  0mm 0 W/m2
04:30 64.4 °F /  18 °C 59.1 °F /  15.1 °C 30.01in /  1016.1hPa Calm   2mph /  3.2km/h 83% 0.00in /  0mm 0 W/m2
04:40 64 °F /  17.8 °C 58.8 °F /  14.9 °C 30.02in /  1016.5hPa Calm   2mph /  3.2km/h 83% 0.00in /  0mm 0 W/m2
04:50 63.7 °F /  17.6 °C 58.4 °F /  14.7 °C 30.01in /  1016.1hPa Calm   1mph /  1.6km/h 83% 0.00in /  0mm 0 W/m2
05:00 63.5 °F /  17.5 °C 58.6 °F /  14.8 °C 30.02in /  1016.5hPa West 1mph /  1.6km/h 1mph /  1.6km/h 84% 0.00in /  0mm 0 W/m2
05:10 63.1 °F /  17.3 °C 58.2 °F /  14.6 °C 30.02in /  1016.5hPa Calm   2mph /  3.2km/h 84% 0.00in /  0mm 7 W/m2
05:20 63 °F /  17.2 °C 58.4 °F /  14.7 °C 30.02in /  1016.5hPa Calm   1mph /  1.6km/h 85% 0.00in /  0mm 14 W/m2
05:30 62.8 °F /  17.1 °C 58.2 °F /  14.6 °C 30.03in /  1016.8hPa West 1mph /  1.6km/h 2mph /  3.2km/h 85% 0.00in /  0mm 24 W/m2
05:40 62.6 °F /  17 °C 58 °F /  14.4 °C 30.03in /  1016.8hPa Calm   3mph /  4.8km/h 85% 0.00in /  0mm 35 W/m2
05:50 62.8 °F /  17.1 °C 58.2 °F /  14.6 °C 30.03in /  1016.8hPa Calm   1mph /  1.6km/h 85% 0.00in /  0mm 48 W/m2
06:00 62.6 °F /  17 °C 58.4 °F /  14.7 °C 30.04in /  1017.2hPa Calm   1mph /  1.6km/h 86% 0.00in /  0mm 65 W/m2
06:10 62.6 °F /  17 °C 58.4 °F /  14.7 °C 30.04in /  1017.2hPa NNW 1mph /  1.6km/h 2mph /  3.2km/h 86% 0.00in /  0mm 83 W/m2
06:20 62.6 °F /  17 °C 58.4 °F /  14.7 °C 30.04in /  1017.2hPa Calm   2mph /  3.2km/h 86% 0.00in /  0mm 101 W/m2
06:30 63 °F /  17.2 °C 59.3 °F /  15.2 °C 30.04in /  1017.2hPa NW 1mph /  1.6km/h 2mph /  3.2km/h 88% 0.00in /  0mm 127 W/m2
06:40 63.3 °F /  17.4 °C 59.1 °F /  15.1 °C 30.04in /  1017.2hPa Calm   2mph /  3.2km/h 86% 0.00in /  0mm 147 W/m2
06:50 63.7 °F /  17.6 °C 59.4 °F /  15.2 °C 30.04in /  1017.2hPa NW 1mph /  1.6km/h 2mph /  3.2km/h 86% 0.00in /  0mm 170 W/m2
07:00 64 °F /  17.8 °C 59.8 °F /  15.4 °C 30.04in /  1017.2hPa West 1mph /  1.6km/h 2mph /  3.2km/h 86% 0.00in /  0mm 197 W/m2
07:10 64.6 °F /  18.1 °C 60 °F /  15.6 °C 30.04in /  1017.2hPa WSW 2mph /  3.2km/h 2mph /  3.2km/h 85% 0.00in /  0mm 227 W/m2
07:20 64.9 °F /  18.3 °C 60.3 °F /  15.7 °C 30.04in /  1017.2hPa Calm   2mph /  3.2km/h 85% 0.00in /  0mm 256 W/m2
07:30 65.6 °F /  18.7 °C 60.7 °F /  15.9 °C 30.04in /  1017.2hPa WNW 1mph /  1.6km/h 2mph /  3.2km/h 84% 0.00in /  0mm 287 W/m2
07:40 66.2 °F /  19 °C 61.2 °F /  16.2 °C 30.04in /  1017.2hPa Calm   2mph /  3.2km/h 84% 0.00in /  0mm 319 W/m2
07:50 66.9 °F /  19.4 °C 62.3 °F /  16.8 °C 30.05in /  1017.5hPa SE 2mph /  3.2km/h 3mph /  4.8km/h 85% 0.00in /  0mm 356 W/m2
08:00 68 °F /  20 °C 62.6 °F /  17 °C 30.05in /  1017.5hPa NE 1mph /  1.6km/h 5mph /  8km/h 83% 0.00in /  0mm 388 W/m2
08:10 69.1 °F /  20.6 °C 63 °F /  17.2 °C 30.05in /  1017.5hPa NE 2mph /  3.2km/h 7mph /  11.3km/h 81% 0.00in /  0mm 421 W/m2
08:20 69.8 °F /  21 °C 63.3 °F /  17.4 °C 30.05in /  1017.5hPa NNE 3mph /  4.8km/h 7mph /  11.3km/h 80% 0.00in /  0mm 453 W/m2
08:30 70.7 °F /  21.5 °C 64.2 °F /  17.9 °C 30.05in /  1017.5hPa North 1mph /  1.6km/h 8mph /  12.9km/h 80% 0.00in /  0mm 486 W/m2
08:40 71.4 °F /  21.9 °C 64.6 °F /  18.1 °C 30.05in /  1017.5hPa NNE 3mph /  4.8km/h 8mph /  12.9km/h 79% 0.00in /  0mm 516 W/m2
08:50 72.3 °F /  22.4 °C 65.4 °F /  18.6 °C 30.05in /  1017.5hPa NNE 1mph /  1.6km/h 9mph /  14.5km/h 79% 0.00in /  0mm 552 W/m2
Knjazevac, Serbia
Compliments of Weather Underground - 2 mb